PWSweather.com
Personal Weather Stations
Station Observations
INORDPAS37
Bondues, BonduesFR 59910

BonduesBonduesFR 59910

Lat: 50.7, Lon: 3.09

Elevation: 102

Station Type: Netatmo

http://bondues.meteoamikuze.com

High Low Average
Temperature 67.5°F19.7°C 50.0°F10.0°C 56.3°F13.5°C
Dew Point 53.2°F11.8°C 38.1°F3.4°C 43.3°F6.3°C
Winds 4.3 mph 6.9 kmh 1.3 mph 2.1 kmh 3.0 mph WNW4.8 kmh WNW
Wind Gusts 15.4 mph24.8 kmh 3.1 mph5.0 kmh 8.0 mph12.9 kmh
Humidity 71% 63% 67%
Pressure 30.27 in1025.1 mb 30.06 in1017.9 mb -
Precipitation 0.00 in0.0 mm - -
Hour Temp Dew Point Humidity Winds Wind Gusts Pressure Precip Precip Rate Daily Precip Total
12:15 AM 51.3°F10.7°C 39.0°F3.9°C 68% 1.3 mph WNW2.1 kmh WNW 4.3 mph6.9 kmh 30.08 in1018.6 mb 0.00 in0.0 mm 0.00 in0.0 mm 0.00 in0.0 mm
12:21 AM 50.9°F10.5°C 38.7°F3.7°C 68% 1.8 mph NW2.9 kmh NW 4.3 mph6.9 kmh 30.08 in1018.6 mb 0.00 in0.0 mm 0.00 in0.0 mm 0.00 in0.0 mm
12:55 AM 50.5°F10.3°C 38.7°F3.7°C 69% 1.3 mph WNW2.1 kmh WNW 3.1 mph5.0 kmh 30.08 in1018.6 mb 0.00 in0.0 mm 0.00 in0.0 mm 0.00 in0.0 mm
01:01 AM 50.2°F10.1°C 38.3°F3.5°C 69% 1.3 mph W2.1 kmh W 3.1 mph5.0 kmh 30.07 in1018.3 mb 0.00 in0.0 mm 0.00 in0.0 mm 0.00 in0.0 mm
01:21 AM 50.2°F10.1°C 38.3°F3.5°C 69% 1.3 mph W2.1 kmh W 3.1 mph5.0 kmh 30.07 in1018.3 mb 0.00 in0.0 mm 0.00 in0.0 mm 0.00 in0.0 mm
01:41 AM 50.0°F10.0°C 38.1°F3.4°C 69% 1.3 mph W2.1 kmh W 3.8 mph6.1 kmh 30.07 in1018.3 mb 0.00 in0.0 mm 0.00 in0.0 mm 0.00 in0.0 mm
02:02 AM 50.0°F10.0°C 38.1°F3.4°C 69% 1.8 mph WNW2.9 kmh WNW 5.6 mph9.0 kmh 30.07 in1018.3 mb 0.00 in0.0 mm 0.00 in0.0 mm 0.00 in0.0 mm
02:21 AM 50.4°F10.2°C 38.8°F3.8°C 70% 1.8 mph WNW2.9 kmh WNW 4.3 mph6.9 kmh 30.06 in1017.9 mb 0.00 in0.0 mm 0.00 in0.0 mm 0.00 in0.0 mm
02:42 AM 50.9°F10.5°C 39.4°F4.1°C 70% 2.5 mph WNW4.0 kmh WNW 5.6 mph9.0 kmh 30.06 in1017.9 mb 0.00 in0.0 mm 0.00 in0.0 mm 0.00 in0.0 mm
03:02 AM 51.4°F10.8°C 39.9°F4.4°C 70% 1.8 mph WNW2.9 kmh WNW 4.9 mph7.9 kmh 30.06 in1017.9 mb 0.00 in0.0 mm 0.00 in0.0 mm 0.00 in0.0 mm
03:22 AM 51.6°F10.9°C 40.5°F4.7°C 71% 2.5 mph WNW4.0 kmh WNW 8.1 mph13.0 kmh 30.06 in1017.9 mb 0.00 in0.0 mm 0.00 in0.0 mm 0.00 in0.0 mm
03:42 AM 51.8°F11.0°C 40.6°F4.8°C 71% 2.5 mph NW4.0 kmh NW 6.9 mph11.1 kmh 30.06 in1017.9 mb 0.00 in0.0 mm 0.00 in0.0 mm 0.00 in0.0 mm
04:02 AM 51.6°F10.9°C 40.5°F4.7°C 71% 2.5 mph NW4.0 kmh NW 7.4 mph11.9 kmh 30.06 in1017.9 mb 0.00 in0.0 mm 0.00 in0.0 mm 0.00 in0.0 mm
04:23 AM 51.8°F11.0°C 40.6°F4.8°C 71% 1.8 mph NW2.9 kmh NW 5.6 mph9.0 kmh 30.06 in1017.9 mb 0.00 in0.0 mm 0.00 in0.0 mm 0.00 in0.0 mm
04:43 AM 51.8°F11.0°C 40.6°F4.8°C 71% 1.8 mph NNW2.9 kmh NNW 5.6 mph9.0 kmh 30.06 in1017.9 mb 0.00 in0.0 mm 0.00 in0.0 mm 0.00 in0.0 mm
05:03 AM 52.0°F11.1°C 40.8°F4.9°C 71% 2.5 mph NW4.0 kmh NW 6.9 mph11.1 kmh 30.07 in1018.3 mb 0.00 in0.0 mm 0.00 in0.0 mm 0.00 in0.0 mm
05:23 AM 52.2°F11.2°C 41.0°F5.0°C 71% 1.3 mph NW2.1 kmh NW 3.8 mph6.1 kmh 30.07 in1018.3 mb 0.00 in0.0 mm 0.00 in0.0 mm 0.00 in0.0 mm
05:44 AM 52.3°F11.3°C 41.2°F5.1°C 71% 1.8 mph NW2.9 kmh NW 5.6 mph9.0 kmh 30.07 in1018.3 mb 0.00 in0.0 mm 0.00 in0.0 mm 0.00 in0.0 mm
06:03 AM 52.5°F11.4°C 41.4°F5.2°C 71% 1.8 mph NW2.9 kmh NW 5.6 mph9.0 kmh 30.07 in1018.3 mb 0.00 in0.0 mm 0.00 in0.0 mm 0.00 in0.0 mm
06:24 AM 52.9°F11.6°C 41.7°F5.4°C 71% 1.8 mph NW2.9 kmh NW 6.9 mph11.1 kmh 30.08 in1018.6 mb 0.00 in0.0 mm 0.00 in0.0 mm 0.00 in0.0 mm
06:43 AM 53.6°F12.0°C 42.4°F5.8°C 71% 1.3 mph NW2.1 kmh NW 3.8 mph6.1 kmh 30.08 in1018.6 mb 0.00 in0.0 mm 0.00 in0.0 mm 0.00 in0.0 mm
07:04 AM 54.9°F12.7°C 43.7°F6.5°C 71% 2.5 mph NW4.0 kmh NW 6.9 mph11.1 kmh 30.09 in1019.0 mb 0.00 in0.0 mm 0.00 in0.0 mm 0.00 in0.0 mm
07:25 AM 56.8°F13.8°C 45.5°F7.5°C 71% 1.3 mph NW2.1 kmh NW 5.6 mph9.0 kmh 30.09 in1019.0 mb 0.00 in0.0 mm 0.00 in0.0 mm 0.00 in0.0 mm
07:44 AM 58.6°F14.8°C 47.3°F8.5°C 71% 2.5 mph NW4.0 kmh NW 6.9 mph11.1 kmh 30.09 in1019.0 mb 0.00 in0.0 mm 0.00 in0.0 mm 0.00 in0.0 mm
08:05 AM 59.0°F15.0°C 47.7°F8.7°C 71% 1.8 mph NW2.9 kmh NW 5.6 mph9.0 kmh 30.09 in1019.0 mb 0.00 in0.0 mm 0.00 in0.0 mm 0.00 in0.0 mm
08:24 AM 61.2°F16.2°C 49.3°F9.6°C 70% 2.5 mph NW4.0 kmh NW 6.9 mph11.1 kmh 30.10 in1019.3 mb 0.00 in0.0 mm 0.00 in0.0 mm 0.00 in0.0 mm
08:45 AM 63.5°F17.5°C 51.1°F10.6°C 69% 3.1 mph NW5.0 kmh NW 7.4 mph11.9 kmh 30.10 in1019.3 mb 0.00 in0.0 mm 0.00 in0.0 mm 0.00 in0.0 mm
09:05 AM 63.3°F17.4°C 50.5°F10.3°C 68% 2.5 mph NW4.0 kmh NW 6.9 mph11.1 kmh 30.10 in1019.3 mb 0.00 in0.0 mm 0.00 in0.0 mm 0.00 in0.0 mm
09:25 AM 63.3°F17.4°C 49.6°F9.8°C 66% 3.1 mph NW5.0 kmh NW 8.1 mph13.0 kmh 30.10 in1019.3 mb 0.00 in0.0 mm 0.00 in0.0 mm 0.00 in0.0 mm
09:45 AM 65.3°F18.5°C 51.6°F10.9°C 66% 2.5 mph NNW4.0 kmh NNW 8.7 mph14.0 kmh 30.11 in1019.6 mb 0.00 in0.0 mm 0.00 in0.0 mm 0.00 in0.0 mm
10:05 AM 66.2°F19.0°C 52.5°F11.4°C 66% 2.5 mph NNW4.0 kmh NNW 7.4 mph11.9 kmh 30.10 in1019.3 mb 0.00 in0.0 mm 0.00 in0.0 mm 0.00 in0.0 mm
10:26 AM 67.5°F19.7°C 53.2°F11.8°C 65% 2.5 mph NW4.0 kmh NW 7.4 mph11.9 kmh 30.11 in1019.6 mb 0.00 in0.0 mm 0.00 in0.0 mm 0.00 in0.0 mm
10:46 AM 66.6°F19.2°C 52.0°F11.1°C 64% 3.1 mph NW5.0 kmh NW 9.8 mph15.8 kmh 30.11 in1019.6 mb 0.00 in0.0 mm 0.00 in0.0 mm 0.00 in0.0 mm
11:06 AM 66.7°F19.3°C 51.8°F11.0°C 63% 3.1 mph NW5.0 kmh NW 8.1 mph13.0 kmh 30.12 in1020.0 mb 0.00 in0.0 mm 0.00 in0.0 mm 0.00 in0.0 mm
11:26 AM 64.9°F18.3°C 50.0°F10.0°C 63% 2.5 mph NW4.0 kmh NW 7.4 mph11.9 kmh 30.12 in1020.0 mb 0.00 in0.0 mm 0.00 in0.0 mm 0.00 in0.0 mm
11:46 AM 63.7°F17.6°C 48.7°F9.3°C 63% 2.5 mph NNW4.0 kmh NNW 6.9 mph11.1 kmh 30.12 in1020.0 mb 0.00 in0.0 mm 0.00 in0.0 mm 0.00 in0.0 mm
12:06 PM 62.4°F16.9°C 47.7°F8.7°C 63% 3.1 mph NW5.0 kmh NW 11.2 mph18.0 kmh 30.13 in1020.3 mb 0.00 in0.0 mm 0.00 in0.0 mm 0.00 in0.0 mm
12:27 PM 61.7°F16.5°C 47.3°F8.5°C 64% 3.1 mph NW5.0 kmh NW 10.5 mph16.9 kmh 30.14 in1020.7 mb 0.00 in0.0 mm 0.00 in0.0 mm 0.00 in0.0 mm
12:47 PM 61.3°F16.3°C 46.9°F8.3°C 64% 3.1 mph NW5.0 kmh NW 9.8 mph15.8 kmh 30.14 in1020.7 mb 0.00 in0.0 mm 0.00 in0.0 mm 0.00 in0.0 mm
01:07 PM 59.9°F15.5°C 45.7°F7.6°C 64% 3.1 mph NNW5.0 kmh NNW 10.5 mph16.9 kmh 30.16 in1021.3 mb 0.00 in0.0 mm 0.00 in0.0 mm 0.00 in0.0 mm
01:27 PM 58.8°F14.9°C 45.0°F7.2°C 65% 2.5 mph NW4.0 kmh NW 7.4 mph11.9 kmh 30.15 in1021.0 mb 0.00 in0.0 mm 0.00 in0.0 mm 0.00 in0.0 mm
01:47 PM 58.1°F14.5°C 44.4°F6.9°C 65% 3.1 mph NW5.0 kmh NW 9.4 mph15.1 kmh 30.16 in1021.3 mb 0.00 in0.0 mm 0.00 in0.0 mm 0.00 in0.0 mm
02:08 PM 57.9°F14.4°C 44.2°F6.8°C 65% 2.5 mph NNW4.0 kmh NNW 5.6 mph9.0 kmh 30.16 in1021.3 mb 0.00 in0.0 mm 0.00 in0.0 mm 0.00 in0.0 mm
02:35 PM 58.1°F14.5°C 44.8°F7.1°C 66% 3.1 mph NW5.0 kmh NW 9.4 mph15.1 kmh 30.16 in1021.3 mb 0.00 in0.0 mm 0.00 in0.0 mm 0.00 in0.0 mm
02:55 PM 59.4°F15.2°C 45.5°F7.5°C 65% 2.5 mph NW4.0 kmh NW 13.6 mph21.9 kmh 30.16 in1021.3 mb 0.00 in0.0 mm 0.00 in0.0 mm 0.00 in0.0 mm
03:01 PM 59.4°F15.2°C 45.5°F7.5°C 65% 4.3 mph NNW6.9 kmh NNW 11.9 mph19.2 kmh 30.17 in1021.7 mb 0.00 in0.0 mm 0.00 in0.0 mm 0.00 in0.0 mm
03:35 PM 58.8°F14.9°C 45.0°F7.2°C 65% 3.8 mph NW6.1 kmh NW 13.0 mph20.9 kmh 30.16 in1021.3 mb 0.00 in0.0 mm 0.00 in0.0 mm 0.00 in0.0 mm
03:41 PM 59.4°F15.2°C 45.5°F7.5°C 65% 4.3 mph NW6.9 kmh NW 13.0 mph20.9 kmh 30.16 in1021.3 mb 0.00 in0.0 mm 0.00 in0.0 mm 0.00 in0.0 mm
04:01 PM 60.4°F15.8°C 46.6°F8.1°C 65% 4.3 mph NNW6.9 kmh NNW 11.2 mph18.0 kmh 30.16 in1021.3 mb 0.00 in0.0 mm 0.00 in0.0 mm 0.00 in0.0 mm
04:21 PM 60.4°F15.8°C 46.6°F8.1°C 65% 3.1 mph NNW5.0 kmh NNW 9.4 mph15.1 kmh 30.17 in1021.7 mb 0.00 in0.0 mm 0.00 in0.0 mm 0.00 in0.0 mm
04:42 PM 59.9°F15.5°C 45.7°F7.6°C 64% 4.3 mph NNW6.9 kmh NNW 11.2 mph18.0 kmh 30.17 in1021.7 mb 0.00 in0.0 mm 0.00 in0.0 mm 0.00 in0.0 mm
05:01 PM 58.1°F14.5°C 43.9°F6.6°C 64% 3.8 mph NNW6.1 kmh NNW 8.7 mph14.0 kmh 30.17 in1021.7 mb 0.00 in0.0 mm 0.00 in0.0 mm 0.00 in0.0 mm
05:22 PM 56.8°F13.8°C 43.2°F6.2°C 65% 3.8 mph NW6.1 kmh NW 9.8 mph15.8 kmh 30.16 in1021.3 mb 0.00 in0.0 mm 0.00 in0.0 mm 0.00 in0.0 mm
05:41 PM 57.0°F13.9°C 43.3°F6.3°C 65% 3.8 mph NNW6.1 kmh NNW 11.2 mph18.0 kmh 30.17 in1021.7 mb 0.00 in0.0 mm 0.00 in0.0 mm 0.00 in0.0 mm
06:04 PM 57.4°F14.1°C 43.7°F6.5°C 65% 4.3 mph NNW6.9 kmh NNW 15.4 mph24.8 kmh 30.17 in1021.7 mb 0.00 in0.0 mm 0.00 in0.0 mm 0.00 in0.0 mm
06:25 PM 56.7°F13.7°C 43.0°F6.1°C 65% 3.8 mph N6.1 kmh N 13.0 mph20.9 kmh 30.17 in1021.7 mb 0.00 in0.0 mm 0.00 in0.0 mm 0.00 in0.0 mm
06:45 PM 56.1°F13.4°C 42.4°F5.8°C 65% 4.3 mph N6.9 kmh N 13.0 mph20.9 kmh 30.18 in1022.0 mb 0.00 in0.0 mm 0.00 in0.0 mm 0.00 in0.0 mm
07:05 PM 55.2°F12.9°C 41.5°F5.3°C 65% 3.1 mph NNW5.0 kmh NNW 11.2 mph18.0 kmh 30.19 in1022.4 mb 0.00 in0.0 mm 0.00 in0.0 mm 0.00 in0.0 mm
07:25 PM 54.5°F12.5°C 41.0°F5.0°C 65% 3.1 mph NNW5.0 kmh NNW 8.1 mph13.0 kmh 30.21 in1023.0 mb 0.00 in0.0 mm 0.00 in0.0 mm 0.00 in0.0 mm
07:45 PM 54.0°F12.2°C 40.5°F4.7°C 65% 3.8 mph N6.1 kmh N 14.3 mph23.0 kmh 30.21 in1023.0 mb 0.00 in0.0 mm 0.00 in0.0 mm 0.00 in0.0 mm
08:06 PM 53.4°F11.9°C 39.9°F4.4°C 65% 3.8 mph N6.1 kmh N 12.5 mph20.1 kmh 30.22 in1023.4 mb 0.00 in0.0 mm 0.00 in0.0 mm 0.00 in0.0 mm
08:25 PM 53.2°F11.8°C 39.7°F4.3°C 65% 3.1 mph NW5.0 kmh NW 9.4 mph15.1 kmh 30.23 in1023.7 mb 0.00 in0.0 mm 0.00 in0.0 mm 0.00 in0.0 mm
08:46 PM 52.9°F11.6°C 39.4°F4.1°C 65% 3.1 mph N5.0 kmh N 11.9 mph19.2 kmh 30.23 in1023.7 mb 0.00 in0.0 mm 0.00 in0.0 mm 0.00 in0.0 mm
09:06 PM 52.7°F11.5°C 39.6°F4.2°C 66% 3.1 mph NNW5.0 kmh NNW 9.8 mph15.8 kmh 30.23 in1023.7 mb 0.00 in0.0 mm 0.00 in0.0 mm 0.00 in0.0 mm
09:27 PM 52.5°F11.4°C 39.4°F4.1°C 66% 3.1 mph N5.0 kmh N 11.2 mph18.0 kmh 30.24 in1024.0 mb 0.00 in0.0 mm 0.00 in0.0 mm 0.00 in0.0 mm
09:47 PM 52.3°F11.3°C 39.2°F4.0°C 66% 3.1 mph NNE5.0 kmh NNE 11.2 mph18.0 kmh 30.24 in1024.0 mb 0.00 in0.0 mm 0.00 in0.0 mm 0.00 in0.0 mm
10:07 PM 52.2°F11.2°C 39.0°F3.9°C 66% 3.1 mph NNW5.0 kmh NNW 9.4 mph15.1 kmh 30.24 in1024.0 mb 0.00 in0.0 mm 0.00 in0.0 mm 0.00 in0.0 mm
10:28 PM 52.0°F11.1°C 38.8°F3.8°C 66% 2.5 mph N4.0 kmh N 9.4 mph15.1 kmh 30.25 in1024.4 mb 0.00 in0.0 mm 0.00 in0.0 mm 0.00 in0.0 mm
10:47 PM 51.8°F11.0°C 38.7°F3.7°C 66% 2.5 mph 4.0 kmh 9.8 mph15.8 kmh 30.26 in1024.7 mb 0.00 in0.0 mm 0.00 in0.0 mm 0.00 in0.0 mm
11:08 PM 51.6°F10.9°C 38.5°F3.6°C 66% 2.5 mph N4.0 kmh N 9.8 mph15.8 kmh 30.27 in1025.1 mb 0.00 in0.0 mm 0.00 in0.0 mm 0.00 in0.0 mm
11:28 PM 51.6°F10.9°C 38.5°F3.6°C 66% 1.8 mph N2.9 kmh N 5.6 mph9.0 kmh 30.27 in1025.1 mb 0.00 in0.0 mm 0.00 in0.0 mm 0.00 in0.0 mm
11:48 PM 51.4°F10.8°C 38.5°F3.6°C 66% 1.8 mph N2.9 kmh N 8.1 mph13.0 kmh 30.26 in1024.7 mb 0.00 in0.0 mm 0.00 in0.0 mm 0.00 in0.0 mm